createdAt,value
2022-07-29T00:02:23.687Z,22.70
2022-07-29T00:04:53.922Z,22.68
2022-07-29T00:07:24.370Z,22.61
2022-07-29T00:09:54.854Z,22.56
2022-07-29T00:12:27.002Z,22.51
2022-07-29T00:15:00.878Z,22.48
2022-07-29T00:17:30.918Z,22.47
2022-07-29T00:20:01.069Z,22.42
2022-07-29T00:22:31.162Z,22.32
2022-07-29T00:25:01.378Z,22.38
2022-07-29T00:27:31.524Z,22.37
2022-07-29T00:30:04.540Z,22.39
2022-07-29T00:32:34.903Z,22.39
2022-07-29T00:35:17.416Z,22.44
2022-07-29T00:37:48.013Z,22.43
2022-07-29T00:40:18.396Z,22.37
2022-07-29T00:42:55.666Z,22.31
2022-07-29T00:45:28.361Z,22.29
2022-07-29T00:47:58.500Z,22.28
2022-07-29T00:50:28.775Z,22.27
2022-07-29T00:52:59.132Z,22.27
2022-07-29T00:55:29.470Z,22.29
2022-07-29T00:58:01.585Z,22.27
2022-07-29T01:00:37.765Z,22.34
2022-07-29T01:03:08.126Z,22.42
2022-07-29T01:05:50.788Z,22.46
2022-07-29T01:08:24.115Z,22.47
2022-07-29T01:10:55.083Z,22.50
2022-07-29T01:13:26.763Z,22.51
2022-07-29T01:16:07.403Z,22.54
2022-07-29T01:18:41.760Z,22.55
2022-07-29T01:21:31.507Z,22.57
2022-07-29T01:24:19.565Z,22.59
2022-07-29T01:26:52.086Z,22.61
2022-07-29T01:29:38.493Z,22.61
2022-07-29T01:32:27.694Z,22.58
2022-07-29T01:35:07.313Z,22.59
2022-07-29T01:37:43.651Z,22.58
2022-07-29T01:40:20.937Z,22.61
2022-07-29T01:42:56.253Z,22.59
2022-07-29T01:45:35.792Z,22.59
2022-07-29T01:48:10.939Z,22.57
2022-07-29T01:50:48.221Z,22.54
2022-07-29T01:53:24.578Z,22.53
2022-07-29T01:55:56.804Z,22.52
2022-07-29T01:58:31.067Z,22.54
2022-07-29T02:01:05.640Z,22.50
2022-07-29T02:03:36.853Z,22.46
2022-07-29T02:06:10.889Z,22.40
2022-07-29T02:08:42.658Z,22.33
2022-07-29T02:11:13.146Z,22.32
2022-07-29T02:13:45.082Z,22.26
2022-07-29T02:16:21.592Z,22.21
2022-07-29T02:18:54.397Z,22.20
2022-07-29T02:21:29.185Z,22.16
2022-07-29T02:24:03.361Z,22.06
2022-07-29T02:26:36.379Z,22.09
2022-07-29T02:29:06.610Z,22.09
2022-07-29T02:31:40.876Z,22.08
2022-07-29T02:34:13.804Z,21.96
2022-07-29T02:36:49.914Z,22.01
2022-07-29T02:39:21.160Z,21.98
2022-07-29T02:41:53.002Z,21.94
2022-07-29T02:44:25.394Z,21.90
2022-07-29T02:47:08.196Z,21.86
2022-07-29T02:49:41.163Z,21.79
2022-07-29T02:52:16.511Z,21.78
2022-07-29T02:54:54.530Z,21.71
2022-07-29T02:57:27.575Z,21.68
2022-07-29T03:00:04.272Z,21.63
2022-07-29T03:02:41.854Z,21.58
2022-07-29T03:05:16.935Z,21.55
2022-07-29T03:07:51.390Z,21.55
2022-07-29T03:10:23.127Z,21.51
2022-07-29T03:12:54.256Z,21.50
2022-07-29T03:15:28.462Z,21.49
2022-07-29T03:18:04.732Z,21.51
2022-07-29T03:20:34.939Z,21.53
2022-07-29T03:23:05.550Z,21.56
2022-07-29T03:25:35.735Z,21.61
2022-07-29T03:28:06.036Z,21.68
2022-07-29T03:30:36.277Z,21.72
2022-07-29T03:33:13.430Z,21.79
2022-07-29T03:35:44.363Z,21.84
2022-07-29T03:38:14.656Z,21.89
2022-07-29T03:40:50.553Z,21.94
2022-07-29T03:43:22.497Z,22.00
2022-07-29T03:45:55.724Z,22.08
2022-07-29T03:48:30.535Z,22.15
2022-07-29T03:51:00.985Z,22.22
2022-07-29T03:53:31.278Z,22.34
2022-07-29T03:56:05.879Z,22.45
2022-07-29T03:58:36.790Z,22.58
2022-07-29T04:01:07.173Z,22.64
2022-07-29T04:03:40.623Z,22.76
2022-07-29T04:06:11.202Z,22.82
2022-07-29T04:08:42.002Z,22.89
2022-07-29T04:11:12.317Z,22.95
2022-07-29T04:13:42.634Z,23.08
2022-07-29T04:16:12.785Z,23.15
2022-07-29T04:18:46.193Z,23.22
2022-07-29T04:21:16.292Z,23.30
2022-07-29T04:23:53.280Z,23.38
2022-07-29T04:26:24.716Z,23.43
2022-07-29T04:28:54.872Z,23.60
2022-07-29T04:31:25.963Z,23.80
2022-07-29T04:33:58.910Z,24.05
2022-07-29T04:36:30.093Z,24.26
2022-07-29T04:39:00.424Z,24.58
2022-07-29T04:41:32.974Z,25.14
2022-07-29T04:44:07.122Z,25.98
2022-07-29T04:46:37.731Z,27.03
2022-07-29T04:49:10.819Z,27.87
2022-07-29T04:51:40.979Z,28.42
2022-07-29T04:54:11.175Z,28.66
2022-07-29T04:56:41.287Z,29.50
2022-07-29T04:59:14.206Z,29.69
2022-07-29T05:01:44.474Z,30.11
2022-07-29T05:04:17.618Z,30.25
2022-07-29T05:06:47.777Z,30.45
2022-07-29T05:09:18.546Z,31.01
2022-07-29T05:11:48.666Z,31.46
2022-07-29T05:14:19.063Z,31.32
2022-07-29T05:16:52.159Z,31.51
2022-07-29T05:19:24.910Z,31.40
2022-07-29T05:21:55.099Z,31.28
2022-07-29T05:24:25.298Z,31.02
2022-07-29T05:27:00.794Z,31.50
2022-07-29T05:29:44.127Z,31.28
2022-07-29T05:32:15.451Z,30.90
2022-07-29T05:34:51.439Z,30.50
2022-07-29T05:37:22.839Z,30.15
2022-07-29T05:39:56.963Z,30.12
2022-07-29T05:42:27.800Z,30.24
2022-07-29T05:44:58.117Z,30.04
2022-07-29T05:47:28.521Z,30.09
2022-07-29T05:50:01.482Z,29.88
2022-07-29T05:52:31.717Z,29.72
2022-07-29T05:55:05.469Z,29.77
2022-07-29T05:57:36.178Z,29.99
2022-07-29T06:00:07.868Z,30.48
2022-07-29T06:02:39.225Z,30.60
2022-07-29T06:05:16.302Z,30.52
2022-07-29T06:07:50.130Z,30.40
2022-07-29T06:10:23.943Z,30.34
2022-07-29T06:12:57.765Z,30.05
2022-07-29T06:15:27.833Z,29.73
2022-07-29T06:18:00.050Z,29.74
2022-07-29T06:20:34.254Z,29.70
2022-07-29T06:23:06.852Z,29.56
2022-07-29T06:25:37.875Z,29.41
2022-07-29T06:28:08.334Z,29.55
2022-07-29T06:30:38.702Z,29.69
2022-07-29T06:33:09.512Z,29.82
2022-07-29T06:35:51.612Z,30.06
2022-07-29T06:38:30.897Z,30.48
2022-07-29T06:41:04.999Z,31.02
2022-07-29T06:43:51.865Z,30.93
2022-07-29T06:46:24.252Z,31.59
2022-07-29T06:48:55.850Z,31.91
2022-07-29T06:51:28.647Z,32.22
2022-07-29T06:54:02.476Z,31.91
2022-07-29T06:56:38.873Z,31.57
2022-07-29T06:59:10.586Z,32.32
2022-07-29T07:01:41.519Z,32.67
2022-07-29T07:04:12.645Z,32.58
2022-07-29T07:06:45.529Z,32.59
2022-07-29T07:09:15.870Z,32.53
2022-07-29T07:11:46.255Z,32.71
2022-07-29T07:14:20.535Z,32.30
2022-07-29T07:16:52.710Z,31.95
2022-07-29T07:19:24.885Z,31.86
2022-07-29T07:21:57.638Z,32.36
2022-07-29T07:24:27.921Z,32.44
2022-07-29T07:26:58.135Z,32.67
2022-07-29T07:29:28.430Z,32.94
2022-07-29T07:32:00.980Z,32.47
2022-07-29T07:34:31.589Z,32.68
2022-07-29T07:37:04.543Z,32.95
2022-07-29T07:39:36.847Z,33.28
2022-07-29T07:42:07.203Z,33.12
2022-07-29T07:44:57.320Z,32.77
2022-07-29T07:47:28.094Z,32.78
2022-07-29T07:49:58.935Z,32.76
2022-07-29T07:52:31.794Z,32.66
2022-07-29T07:55:02.221Z,32.47
2022-07-29T07:57:32.752Z,32.35
2022-07-29T08:00:02.838Z,32.30
2022-07-29T08:02:34.178Z,32.58
2022-07-29T08:05:04.452Z,32.95
2022-07-29T08:07:37.186Z,32.57
2022-07-29T08:10:08.562Z,33.09
2022-07-29T08:12:38.815Z,33.72
2022-07-29T08:15:11.138Z,33.25
2022-07-29T08:17:42.483Z,33.84
2022-07-29T08:20:14.318Z,33.93
2022-07-29T08:22:47.052Z,34.85
2022-07-29T08:25:19.078Z,35.75
2022-07-29T08:27:49.195Z,35.90
2022-07-29T08:30:19.580Z,35.88
2022-07-29T08:32:55.099Z,35.19
2022-07-29T08:35:27.934Z,35.43
2022-07-29T08:38:04.558Z,35.41
2022-07-29T08:40:34.711Z,34.92
2022-07-29T08:43:09.757Z,34.95
2022-07-29T08:45:48.503Z,34.59
2022-07-29T08:48:23.936Z,34.99
2022-07-29T08:50:59.295Z,35.35
2022-07-29T08:53:32.955Z,35.39
2022-07-29T08:56:07.452Z,35.03
2022-07-29T08:58:38.593Z,35.20
2022-07-29T09:01:12.333Z,34.90
2022-07-29T09:03:43.574Z,34.87
2022-07-29T09:06:17.584Z,35.20
2022-07-29T09:08:50.750Z,35.18
2022-07-29T09:11:21.176Z,35.21
2022-07-29T09:13:51.249Z,35.26
2022-07-29T09:16:43.862Z,35.27
2022-07-29T09:19:23.826Z,35.32
2022-07-29T09:22:04.085Z,35.17
2022-07-29T09:24:44.531Z,34.12
2022-07-29T09:27:23.701Z,34.51
2022-07-29T09:30:02.921Z,34.92
2022-07-29T09:32:34.145Z,34.72
2022-07-29T09:35:23.806Z,34.80
2022-07-29T09:37:55.118Z,34.71
2022-07-29T09:40:30.840Z,35.09
2022-07-29T09:43:01.170Z,35.00
2022-07-29T09:45:33.357Z,34.96
2022-07-29T09:48:16.557Z,35.01
2022-07-29T09:50:50.681Z,34.58
2022-07-29T09:53:36.879Z,34.13
2022-07-29T09:56:11.763Z,34.30
2022-07-29T09:58:41.972Z,34.71
2022-07-29T10:01:12.548Z,34.79
2022-07-29T10:03:55.723Z,34.90
2022-07-29T10:06:25.866Z,34.60
2022-07-29T10:08:56.267Z,34.48
2022-07-29T10:11:48.351Z,35.08
2022-07-29T10:14:19.432Z,34.69
2022-07-29T10:16:49.573Z,34.66
2022-07-29T10:19:20.830Z,34.57
2022-07-29T10:21:55.071Z,34.92
2022-07-29T10:24:30.364Z,34.84
2022-07-29T10:27:04.712Z,35.17
2022-07-29T10:29:36.919Z,34.75
2022-07-29T10:32:33.745Z,34.91
2022-07-29T10:35:23.750Z,35.08
2022-07-29T10:38:16.245Z,35.13
2022-07-29T10:41:09.295Z,35.30
2022-07-29T10:43:47.495Z,35.34
2022-07-29T10:46:22.177Z,35.25
2022-07-29T10:49:11.923Z,34.94
2022-07-29T10:52:08.342Z,35.05
2022-07-29T10:54:51.754Z,35.47
2022-07-29T10:57:53.139Z,34.89
2022-07-29T11:00:35.810Z,34.66
2022-07-29T11:03:10.476Z,34.68
2022-07-29T11:06:01.959Z,34.88
2022-07-29T11:08:43.189Z,35.14
2022-07-29T11:11:37.994Z,34.85
2022-07-29T11:14:10.376Z,35.70
2022-07-29T11:17:06.936Z,35.53
2022-07-29T11:19:44.775Z,35.74
2022-07-29T11:22:36.245Z,36.05
2022-07-29T11:25:50.156Z,36.00
2022-07-29T11:31:09.333Z,35.54
2022-07-29T11:33:56.083Z,36.07
2022-07-29T11:39:36.222Z,36.08
2022-07-29T11:42:37.417Z,35.77
2022-07-29T11:45:41.259Z,35.99
2022-07-29T11:48:29.607Z,35.68
2022-07-29T11:51:01.179Z,35.08
2022-07-29T11:53:32.701Z,34.92
2022-07-29T11:56:04.847Z,34.89
2022-07-29T11:58:35.540Z,35.37
2022-07-29T12:01:08.968Z,35.11
2022-07-29T12:03:39.330Z,35.17
2022-07-29T12:06:18.643Z,35.36
2022-07-29T12:07:01.386Z,35.65
2022-07-29T12:08:51.464Z,35.42
2022-07-29T12:11:23.531Z,36.01
2022-07-29T12:13:55.274Z,36.37
2022-07-29T12:16:29.704Z,36.70
2022-07-29T12:19:02.294Z,36.61
2022-07-29T12:21:53.611Z,36.71
2022-07-29T12:24:27.712Z,36.33
2022-07-29T12:26:59.329Z,36.75
2022-07-29T12:29:34.760Z,36.70
2022-07-29T12:32:14.429Z,36.64
2022-07-29T12:34:45.494Z,36.02
2022-07-29T12:37:18.626Z,35.68
2022-07-29T12:39:49.262Z,35.98
2022-07-29T12:42:19.875Z,35.85
2022-07-29T12:44:52.769Z,36.06
2022-07-29T12:47:23.188Z,36.44
2022-07-29T12:50:12.159Z,36.01
2022-07-29T12:52:45.067Z,36.16
2022-07-29T12:55:15.699Z,35.77
2022-07-29T12:57:51.718Z,35.53
2022-07-29T13:00:27.270Z,35.32
2022-07-29T13:02:59.946Z,35.26
2022-07-29T13:05:48.876Z,35.44
2022-07-29T13:08:22.750Z,35.50
2022-07-29T13:10:53.262Z,35.31
2022-07-29T13:13:23.422Z,34.80
2022-07-29T13:16:10.155Z,34.86
2022-07-29T13:18:42.360Z,34.94
2022-07-29T13:21:16.958Z,34.83
2022-07-29T13:23:51.720Z,34.66
2022-07-29T13:26:21.788Z,34.75
2022-07-29T13:28:52.081Z,34.68
2022-07-29T13:31:23.188Z,34.83
2022-07-29T13:33:53.521Z,34.78
2022-07-29T13:36:24.722Z,34.98
2022-07-29T13:38:57.540Z,35.10
2022-07-29T13:41:27.842Z,35.14
2022-07-29T13:44:06.200Z,35.04
2022-07-29T13:46:39.613Z,34.94
2022-07-29T13:49:11.774Z,34.72
2022-07-29T13:51:42.283Z,34.86
2022-07-29T13:54:15.030Z,34.82
2022-07-29T13:56:46.293Z,35.09
2022-07-29T13:59:16.822Z,35.34
2022-07-29T14:01:47.318Z,35.62
2022-07-29T14:04:17.535Z,35.53
2022-07-29T14:06:47.878Z,35.15
2022-07-29T14:09:22.661Z,34.82
2022-07-29T14:11:53.953Z,34.84
2022-07-29T14:14:24.674Z,35.09
2022-07-29T14:16:54.869Z,35.27
2022-07-29T14:19:25.149Z,35.24
2022-07-29T14:21:55.546Z,35.39
2022-07-29T14:24:32.370Z,35.27
2022-07-29T14:27:02.744Z,35.30
2022-07-29T14:29:36.974Z,35.06
2022-07-29T14:32:10.135Z,35.00
2022-07-29T14:34:41.270Z,34.73
2022-07-29T14:37:16.094Z,34.79
2022-07-29T14:39:49.384Z,34.75
2022-07-29T14:42:19.572Z,34.86
2022-07-29T14:44:50.434Z,35.04
2022-07-29T14:47:20.657Z,35.06
2022-07-29T14:49:50.949Z,35.19
2022-07-29T14:52:21.124Z,35.08
2022-07-29T14:54:53.829Z,35.20
2022-07-29T14:57:24.037Z,35.07
2022-07-29T14:59:55.299Z,35.22
2022-07-29T15:02:40.003Z,35.14
2022-07-29T15:05:16.144Z,35.24
2022-07-29T15:07:46.438Z,35.40
2022-07-29T15:10:19.530Z,35.40
2022-07-29T15:12:51.063Z,35.40
2022-07-29T15:15:21.213Z,35.39
2022-07-29T15:17:51.920Z,35.46
2022-07-29T15:20:22.560Z,35.34
2022-07-29T15:22:52.680Z,35.28
2022-07-29T15:25:25.533Z,35.16
2022-07-29T15:28:01.734Z,35.21
2022-07-29T15:30:34.623Z,35.17
2022-07-29T15:33:06.121Z,35.05
2022-07-29T15:35:40.527Z,34.92
2022-07-29T15:38:11.670Z,34.86
2022-07-29T15:40:45.526Z,34.68
2022-07-29T15:43:15.700Z,34.59
2022-07-29T15:46:08.140Z,34.52
2022-07-29T15:48:42.288Z,34.55
2022-07-29T15:51:12.525Z,34.63
2022-07-29T15:53:42.675Z,34.69
2022-07-29T15:56:15.453Z,34.55
2022-07-29T15:58:45.636Z,34.50
2022-07-29T16:01:15.932Z,34.46
2022-07-29T16:03:48.974Z,34.37
2022-07-29T16:06:19.453Z,34.30
2022-07-29T16:08:49.830Z,34.38
2022-07-29T16:11:23.104Z,34.32
2022-07-29T16:13:53.239Z,34.29
2022-07-29T16:16:23.727Z,34.18
2022-07-29T16:18:54.250Z,34.15
2022-07-29T16:21:27.571Z,34.10
2022-07-29T16:23:58.371Z,34.03
2022-07-29T16:26:31.251Z,33.94
2022-07-29T16:29:02.279Z,33.93
2022-07-29T16:31:32.590Z,33.84
2022-07-29T16:34:03.841Z,33.82
2022-07-29T16:36:36.031Z,33.84
2022-07-29T16:39:07.133Z,33.74
2022-07-29T16:41:39.923Z,33.67
2022-07-29T16:44:09.995Z,33.70
2022-07-29T16:46:41.424Z,33.68
2022-07-29T16:49:11.767Z,33.63
2022-07-29T16:51:45.260Z,33.59
2022-07-29T16:54:15.536Z,33.54
2022-07-29T16:56:48.291Z,33.50
2022-07-29T16:59:18.612Z,33.45
2022-07-29T17:01:48.869Z,33.32
2022-07-29T17:04:19.102Z,33.12
2022-07-29T17:06:49.804Z,33.05
2022-07-29T17:09:21.146Z,33.00
2022-07-29T17:11:56.150Z,32.88
2022-07-29T17:14:27.844Z,32.73
2022-07-29T17:17:01.099Z,32.59
2022-07-29T17:19:34.160Z,32.48
2022-07-29T17:22:11.788Z,32.49
2022-07-29T17:24:45.909Z,32.37
2022-07-29T17:27:19.023Z,32.19
2022-07-29T17:29:49.141Z,32.21
2022-07-29T17:32:19.465Z,32.15
2022-07-29T17:34:49.621Z,32.01
2022-07-29T17:37:19.810Z,31.96
2022-07-29T17:39:50.942Z,31.91
2022-07-29T17:42:23.774Z,31.78
2022-07-29T17:44:53.990Z,31.63
2022-07-29T17:47:24.115Z,31.48
2022-07-29T17:49:54.224Z,31.35
2022-07-29T17:52:24.385Z,31.22
2022-07-29T17:54:54.583Z,31.06
2022-07-29T17:57:27.525Z,30.95
2022-07-29T17:59:57.644Z,30.82
2022-07-29T18:02:28.496Z,30.70
2022-07-29T18:04:58.793Z,30.58
2022-07-29T18:07:28.968Z,30.44
2022-07-29T18:10:00.743Z,30.29
2022-07-29T18:12:33.817Z,30.20
2022-07-29T18:15:03.905Z,30.06
2022-07-29T18:17:48.437Z,29.94
2022-07-29T18:20:24.391Z,29.78
2022-07-29T18:22:54.622Z,29.63
2022-07-29T18:25:25.816Z,29.54
2022-07-29T18:28:00.640Z,29.44
2022-07-29T18:30:33.903Z,29.36
2022-07-29T18:33:24.292Z,29.31
2022-07-29T18:36:04.227Z,29.24
2022-07-29T18:38:41.850Z,29.25
2022-07-29T18:41:12.035Z,29.21
2022-07-29T18:43:45.612Z,29.17
2022-07-29T18:46:15.801Z,29.15
2022-07-29T18:48:46.072Z,29.13
2022-07-29T18:51:16.246Z,29.09
2022-07-29T18:53:46.616Z,29.04
2022-07-29T18:56:16.705Z,29.01
2022-07-29T18:58:49.686Z,28.93
2022-07-29T19:01:19.982Z,28.85
2022-07-29T19:03:50.275Z,28.79
2022-07-29T19:06:25.317Z,28.75
2022-07-29T19:08:56.621Z,28.74
2022-07-29T19:11:27.026Z,28.83
2022-07-29T19:13:59.754Z,28.91
2022-07-29T19:16:32.327Z,28.90
2022-07-29T19:19:03.666Z,28.96
2022-07-29T19:21:33.793Z,28.96
2022-07-29T19:24:06.756Z,28.85
2022-07-29T19:26:44.110Z,28.71
2022-07-29T19:29:17.554Z,28.61
2022-07-29T19:31:47.567Z,28.53
2022-07-29T19:34:17.788Z,28.35
2022-07-29T19:36:47.991Z,28.23
2022-07-29T19:39:18.321Z,28.21
2022-07-29T19:42:03.508Z,28.09
2022-07-29T19:44:36.519Z,28.02
2022-07-29T19:47:06.782Z,27.93
2022-07-29T19:49:42.122Z,27.83
2022-07-29T19:52:12.621Z,27.74
2022-07-29T19:54:42.840Z,27.64
2022-07-29T19:57:12.954Z,27.56
2022-07-29T19:59:47.222Z,27.41
2022-07-29T20:02:17.474Z,27.38
2022-07-29T20:04:47.807Z,27.31
2022-07-29T20:07:18.066Z,27.25
2022-07-29T20:09:49.481Z,27.24
2022-07-29T20:12:19.646Z,27.23
2022-07-29T20:14:53.516Z,27.25
2022-07-29T20:17:23.602Z,27.22
2022-07-29T20:19:56.464Z,27.14
2022-07-29T20:22:26.588Z,27.04
2022-07-29T20:24:56.966Z,26.98
2022-07-29T20:27:27.053Z,26.93
2022-07-29T20:29:59.946Z,26.85
2022-07-29T20:32:30.234Z,26.77
2022-07-29T20:35:00.408Z,26.73
2022-07-29T20:37:30.627Z,26.68
2022-07-29T20:40:00.758Z,26.62
2022-07-29T20:42:30.918Z,26.56
2022-07-29T20:45:08.352Z,26.51
2022-07-29T20:47:39.130Z,26.47
2022-07-29T20:50:10.481Z,26.45
2022-07-29T20:52:41.568Z,26.39
2022-07-29T20:55:12.450Z,26.30
2022-07-29T20:57:43.177Z,26.30
2022-07-29T21:00:17.021Z,26.27
2022-07-29T21:02:47.561Z,26.28
2022-07-29T21:05:17.874Z,26.29
2022-07-29T21:07:48.093Z,26.30
2022-07-29T21:10:18.529Z,26.27
2022-07-29T21:12:49.681Z,26.24
2022-07-29T21:15:24.013Z,26.21
2022-07-29T21:18:00.729Z,26.20
2022-07-29T21:20:31.851Z,26.20
2022-07-29T21:23:02.011Z,26.14
2022-07-29T21:25:34.443Z,26.10
2022-07-29T21:28:17.557Z,26.06
2022-07-29T21:30:50.378Z,26.00
2022-07-29T21:33:20.579Z,25.89
2022-07-29T21:38:41.924Z,25.78
2022-07-29T21:41:14.917Z,25.72
2022-07-29T21:43:46.229Z,25.72
2022-07-29T21:46:20.804Z,25.76
2022-07-29T21:48:54.914Z,25.75
2022-07-29T21:51:25.202Z,25.80
2022-07-29T21:53:55.356Z,25.71
2022-07-29T21:56:27.968Z,25.62
2022-07-29T21:58:59.009Z,25.48
2022-07-29T22:01:39.039Z,25.68
2022-07-29T22:04:09.862Z,25.64
2022-07-29T22:06:40.040Z,25.64
2022-07-29T22:09:10.373Z,25.46
2022-07-29T22:11:40.552Z,25.22
2022-07-29T22:14:10.741Z,25.09
2022-07-29T22:16:43.743Z,25.14
2022-07-29T22:19:13.964Z,25.09
2022-07-29T22:21:44.913Z,25.05
2022-07-29T22:24:15.001Z,24.89
2022-07-29T22:26:45.157Z,24.86
2022-07-29T22:29:17.744Z,24.68
2022-07-29T22:31:50.571Z,24.52
2022-07-29T22:34:20.669Z,24.57
2022-07-29T22:36:50.850Z,24.61
2022-07-29T22:39:21.057Z,24.59
2022-07-29T22:41:51.325Z,24.60
2022-07-29T22:44:21.594Z,24.60
2022-07-29T22:49:24.291Z,24.54
2022-07-29T22:51:54.619Z,24.48
2022-07-29T22:54:24.693Z,24.60
2022-07-29T22:56:55.327Z,24.72
2022-07-29T22:59:25.410Z,24.70
2022-07-29T23:01:58.267Z,24.68
2022-07-29T23:04:28.426Z,24.73
2022-07-29T23:06:58.725Z,24.57
2022-07-29T23:09:30.091Z,24.65
2022-07-29T23:12:00.198Z,24.68
2022-07-29T23:14:30.276Z,24.74
2022-07-29T23:17:03.505Z,24.92
2022-07-29T23:19:34.009Z,24.94
2022-07-29T23:22:04.178Z,24.93
2022-07-29T23:24:34.294Z,25.01
2022-07-29T23:27:04.468Z,25.04
2022-07-29T23:29:36.920Z,25.07
2022-07-29T23:32:10.277Z,25.06
2022-07-29T23:34:40.317Z,24.96
2022-07-29T23:37:10.502Z,25.11
2022-07-29T23:39:40.837Z,25.04
2022-07-29T23:42:10.950Z,24.94
2022-07-29T23:44:41.101Z,25.05
2022-07-29T23:47:13.885Z,25.04
2022-07-29T23:49:44.030Z,25.09
2022-07-29T23:52:14.229Z,25.11
2022-07-29T23:54:44.394Z,25.14
2022-07-29T23:57:14.567Z,25.11
2022-07-29T23:59:44.778Z,25.11
